createdAt,value
2022-10-18T00:00:48.856Z,80.39
2022-10-18T00:02:20.559Z,80.43
2022-10-18T00:03:52.392Z,80.49
2022-10-18T00:05:24.074Z,80.32
2022-10-18T00:06:55.686Z,80.39
2022-10-18T00:08:28.045Z,80.54
2022-10-18T00:09:59.714Z,80.57
2022-10-18T00:11:31.578Z,80.49
2022-10-18T00:13:03.373Z,80.52
2022-10-18T00:14:36.405Z,80.40
2022-10-18T00:16:12.757Z,80.40
2022-10-18T00:17:44.726Z,80.56
2022-10-18T00:19:16.622Z,80.76
2022-10-18T00:20:57.246Z,80.90
2022-10-18T00:22:29.217Z,81.01
2022-10-18T00:24:01.559Z,80.99
2022-10-18T00:25:33.147Z,81.01
2022-10-18T00:27:04.791Z,80.94
2022-10-18T00:28:36.538Z,81.18
2022-10-18T00:30:10.509Z,81.12
2022-10-18T00:31:43.855Z,81.17
2022-10-18T00:33:15.729Z,81.10
2022-10-18T00:34:47.617Z,81.11
2022-10-18T00:36:19.367Z,81.16
2022-10-18T00:37:50.969Z,81.18
2022-10-18T00:39:22.685Z,81.28
2022-10-18T00:40:54.299Z,81.27
2022-10-18T00:42:30.671Z,81.10
2022-10-18T00:44:04.919Z,81.25
2022-10-18T00:45:37.928Z,81.18
2022-10-18T00:47:11.742Z,80.95
2022-10-18T00:48:43.607Z,80.94
2022-10-18T00:50:16.031Z,81.25
2022-10-18T00:51:51.641Z,81.21
2022-10-18T00:53:23.834Z,81.17
2022-10-18T00:54:56.645Z,80.91
2022-10-18T00:56:29.336Z,80.95
2022-10-18T00:58:02.001Z,80.98
2022-10-18T00:59:34.961Z,80.91
2022-10-18T01:01:08.160Z,81.13
2022-10-18T01:02:42.041Z,81.15
2022-10-18T01:04:15.093Z,81.09
2022-10-18T01:05:47.888Z,81.46
2022-10-18T01:07:31.069Z,81.38
2022-10-18T01:09:13.545Z,81.51
2022-10-18T01:11:05.209Z,81.42
2022-10-18T01:12:47.942Z,81.43
2022-10-18T01:14:34.127Z,81.58
2022-10-18T01:16:17.176Z,81.68
2022-10-18T01:17:59.378Z,81.59
2022-10-18T01:19:53.132Z,81.71
2022-10-18T01:21:36.238Z,81.72
2022-10-18T01:23:15.467Z,81.67
2022-10-18T01:25:04.141Z,81.50
2022-10-18T01:26:54.565Z,81.43
2022-10-18T01:28:42.154Z,81.33
2022-10-18T01:30:36.445Z,81.55
2022-10-18T01:32:12.985Z,81.59
2022-10-18T01:33:50.961Z,81.63
2022-10-18T01:35:29.430Z,81.77
2022-10-18T01:37:04.647Z,81.97
2022-10-18T01:38:38.574Z,81.85
2022-10-18T01:40:14.383Z,82.00
2022-10-18T01:41:49.097Z,82.15
2022-10-18T01:43:24.222Z,82.31
2022-10-18T01:44:56.997Z,82.28
2022-10-18T01:46:30.148Z,82.33
2022-10-18T01:48:03.028Z,82.54
2022-10-18T01:49:34.700Z,82.39
2022-10-18T01:51:06.450Z,82.46
2022-10-18T01:52:48.545Z,82.37
2022-10-18T01:54:27.529Z,82.33
2022-10-18T01:56:34.580Z,82.27
2022-10-18T01:58:16.985Z,82.18
2022-10-18T01:59:54.794Z,82.24
2022-10-18T02:01:38.667Z,82.06
2022-10-18T02:03:17.764Z,82.01
2022-10-18T02:04:54.360Z,82.03
2022-10-18T02:06:31.696Z,82.19
2022-10-18T02:08:19.265Z,82.24
2022-10-18T02:10:01.233Z,82.42
2022-10-18T02:11:36.373Z,82.49
2022-10-18T02:13:09.176Z,82.39
2022-10-18T02:14:43.768Z,82.43
2022-10-18T02:16:19.519Z,82.37
2022-10-18T02:17:53.767Z,82.38
2022-10-18T02:19:29.910Z,82.38
2022-10-18T02:21:03.418Z,82.40
2022-10-18T02:22:37.141Z,82.27
2022-10-18T02:24:10.978Z,82.33
2022-10-18T02:25:42.628Z,82.47
2022-10-18T02:27:14.721Z,82.16
2022-10-18T02:28:46.621Z,82.22
2022-10-18T02:30:21.276Z,82.01
2022-10-18T02:32:03.370Z,81.83
2022-10-18T02:33:43.886Z,82.10
2022-10-18T02:35:20.289Z,82.11
2022-10-18T02:36:55.046Z,82.24
2022-10-18T02:38:28.719Z,82.39
2022-10-18T02:40:01.399Z,82.37
2022-10-18T02:41:33.701Z,82.54
2022-10-18T02:43:06.875Z,82.58
2022-10-18T02:44:39.328Z,82.67
2022-10-18T02:46:11.206Z,82.66
2022-10-18T02:47:43.543Z,82.62
2022-10-18T02:49:16.813Z,82.84
2022-10-18T02:50:48.606Z,82.75
2022-10-18T02:52:20.230Z,82.94
2022-10-18T02:53:52.060Z,83.05
2022-10-18T02:55:23.708Z,82.96
2022-10-18T02:56:55.584Z,83.07
2022-10-18T02:58:27.199Z,83.33
2022-10-18T02:59:59.210Z,83.54
2022-10-18T03:01:33.000Z,83.98
2022-10-18T03:03:04.736Z,83.69
2022-10-18T03:04:38.659Z,83.72
2022-10-18T03:06:10.572Z,83.86
2022-10-18T03:07:42.275Z,83.92
2022-10-18T03:09:13.930Z,83.96
2022-10-18T03:10:45.832Z,83.77
2022-10-18T03:12:17.451Z,83.91
2022-10-18T03:13:50.956Z,83.80
2022-10-18T03:15:22.570Z,83.78
2022-10-18T03:16:54.244Z,83.72
2022-10-18T03:18:25.969Z,83.59
2022-10-18T03:19:58.943Z,83.47
2022-10-18T03:21:30.613Z,83.55
2022-10-18T03:23:03.263Z,83.66
2022-10-18T03:24:34.910Z,83.64
2022-10-18T03:26:06.533Z,83.55
2022-10-18T03:27:38.156Z,83.70
2022-10-18T03:29:10.326Z,83.92
2022-10-18T03:30:42.073Z,83.97
2022-10-18T03:32:13.705Z,84.11
2022-10-18T03:33:46.012Z,84.22
2022-10-18T03:35:19.007Z,84.11
2022-10-18T03:36:50.649Z,84.41
2022-10-18T03:38:22.293Z,84.24
2022-10-18T03:39:53.945Z,84.13
2022-10-18T03:41:25.628Z,84.08
2022-10-18T03:42:57.245Z,84.03
2022-10-18T03:44:28.929Z,84.03
2022-10-18T03:46:00.597Z,83.97
2022-10-18T03:47:32.223Z,83.91
2022-10-18T03:49:03.936Z,84.09
2022-10-18T03:50:36.939Z,83.98
2022-10-18T03:52:08.677Z,84.02
2022-10-18T03:53:40.426Z,84.08
2022-10-18T03:55:12.078Z,83.98
2022-10-18T03:56:43.690Z,84.14
2022-10-18T03:58:15.322Z,84.13
2022-10-18T03:59:48.639Z,84.09
2022-10-18T04:01:20.314Z,84.08
2022-10-18T04:02:54.963Z,83.88
2022-10-18T04:04:27.628Z,83.60
2022-10-18T04:06:00.765Z,83.52
2022-10-18T04:07:32.427Z,83.74
2022-10-18T04:09:07.820Z,83.79
2022-10-18T04:10:42.296Z,84.05
2022-10-18T04:12:14.012Z,84.02
2022-10-18T04:13:45.672Z,84.10
2022-10-18T04:15:17.553Z,84.10
2022-10-18T04:16:49.300Z,84.51
2022-10-18T04:18:20.963Z,83.97
2022-10-18T04:19:52.719Z,83.99
2022-10-18T04:21:25.671Z,84.06
2022-10-18T04:22:57.994Z,83.83
2022-10-18T04:24:29.653Z,83.93
2022-10-18T04:26:01.314Z,83.91
2022-10-18T04:27:33.281Z,83.99
2022-10-18T04:29:05.186Z,84.36
2022-10-18T04:30:36.982Z,84.65
2022-10-18T04:32:08.634Z,84.98
2022-10-18T04:33:40.327Z,85.22
2022-10-18T04:35:11.953Z,85.30
2022-10-18T04:36:44.980Z,85.18
2022-10-18T04:38:16.591Z,85.31
2022-10-18T04:39:51.235Z,85.25
2022-10-18T04:41:25.331Z,85.27
2022-10-18T04:42:56.946Z,85.26
2022-10-18T04:44:28.738Z,85.06
2022-10-18T04:46:00.542Z,84.87
2022-10-18T04:47:32.374Z,84.73
2022-10-18T04:49:04.252Z,84.76
2022-10-18T04:50:35.903Z,84.69
2022-10-18T04:52:20.127Z,84.82
2022-10-18T04:53:51.782Z,85.14
2022-10-18T04:55:23.463Z,85.16
2022-10-18T04:56:55.292Z,85.35
2022-10-18T04:58:26.949Z,85.25
2022-10-18T04:59:58.561Z,85.37
2022-10-18T05:01:30.294Z,85.46
2022-10-18T05:03:01.924Z,85.67
2022-10-18T05:04:33.688Z,85.67
2022-10-18T05:06:05.663Z,85.71
2022-10-18T05:07:38.755Z,85.60
2022-10-18T05:09:10.568Z,85.77
2022-10-18T05:10:42.174Z,86.14
2022-10-18T05:12:13.834Z,86.55
2022-10-18T05:13:47.267Z,86.95
2022-10-18T05:15:21.964Z,87.02
2022-10-18T05:16:53.618Z,87.02
2022-10-18T05:18:25.396Z,87.48
2022-10-18T05:19:57.081Z,87.35
2022-10-18T05:21:28.812Z,87.22
2022-10-18T05:23:01.819Z,87.39
2022-10-18T05:24:33.560Z,87.15
2022-10-18T05:26:06.747Z,87.08
2022-10-18T05:27:38.430Z,87.10
2022-10-18T05:29:10.254Z,86.94
2022-10-18T05:30:42.372Z,86.72
2022-10-18T05:32:14.059Z,86.56
2022-10-18T05:33:45.690Z,86.74
2022-10-18T05:35:17.370Z,86.70
2022-10-18T05:36:49.847Z,86.68
2022-10-18T05:38:23.006Z,86.87
2022-10-18T05:39:54.674Z,86.87
2022-10-18T05:41:26.315Z,86.46
2022-10-18T05:42:57.912Z,86.47
2022-10-18T05:44:29.576Z,86.20
2022-10-18T05:46:01.219Z,86.04
2022-10-18T05:47:32.873Z,86.16
2022-10-18T05:49:04.614Z,85.96
2022-10-18T05:50:39.526Z,85.97
2022-10-18T05:52:12.068Z,85.73
2022-10-18T05:53:45.179Z,85.41
2022-10-18T05:55:17.059Z,85.52
2022-10-18T05:56:48.654Z,85.29
2022-10-18T05:58:20.437Z,85.19
2022-10-18T05:59:52.069Z,85.51
2022-10-18T06:01:23.715Z,85.77
2022-10-18T06:02:59.477Z,85.88
2022-10-18T06:04:32.091Z,85.74
2022-10-18T06:06:05.845Z,85.70
2022-10-18T06:07:37.436Z,85.46
2022-10-18T06:09:10.486Z,85.45
2022-10-18T06:10:42.113Z,85.42
2022-10-18T06:12:13.734Z,85.25
2022-10-18T06:13:47.291Z,85.12
2022-10-18T06:15:19.013Z,85.16
2022-10-18T06:16:50.669Z,84.80
2022-10-18T06:18:22.298Z,84.89
2022-10-18T06:19:53.935Z,84.53
2022-10-18T06:21:26.128Z,84.88
2022-10-18T06:22:57.812Z,85.04
2022-10-18T06:24:30.817Z,85.13
2022-10-18T06:26:04.593Z,85.16
2022-10-18T06:27:36.590Z,85.53
2022-10-18T06:29:08.280Z,85.48
2022-10-18T06:30:40.056Z,85.53
2022-10-18T06:32:11.801Z,85.51
2022-10-18T06:33:43.514Z,85.20
2022-10-18T06:35:15.207Z,85.23
2022-10-18T06:36:46.909Z,85.11
2022-10-18T06:38:18.533Z,85.02
2022-10-18T06:39:51.544Z,84.95
2022-10-18T06:41:23.846Z,85.15
2022-10-18T06:43:00.507Z,85.21
2022-10-18T06:44:42.247Z,85.78
2022-10-18T06:46:13.899Z,85.88
2022-10-18T06:47:45.662Z,85.69
2022-10-18T06:49:19.154Z,85.54
2022-10-18T06:50:52.986Z,85.32
2022-10-18T06:52:25.665Z,85.23
2022-10-18T06:54:16.816Z,85.35
2022-10-18T06:55:50.528Z,85.65
2022-10-18T06:57:22.159Z,86.61
2022-10-18T06:58:53.844Z,87.24
2022-10-18T07:00:25.535Z,88.00
2022-10-18T07:01:57.191Z,88.35
2022-10-18T07:03:29.602Z,88.38
2022-10-18T07:05:01.263Z,88.53
2022-10-18T07:06:32.938Z,88.96
2022-10-18T07:08:05.154Z,88.66
2022-10-18T07:09:36.869Z,88.71
2022-10-18T07:11:14.926Z,88.74
2022-10-18T07:12:46.576Z,88.96
2022-10-18T07:14:18.194Z,88.70
2022-10-18T07:15:59.806Z,89.09
2022-10-18T07:17:31.838Z,88.78
2022-10-18T07:19:03.911Z,88.92
2022-10-18T07:20:35.547Z,88.54
2022-10-18T07:22:07.184Z,88.35
2022-10-18T07:23:41.365Z,88.70
2022-10-18T07:25:13.420Z,88.71
2022-10-18T07:26:46.506Z,88.32
2022-10-18T07:28:18.408Z,88.20
2022-10-18T07:29:50.116Z,88.16
2022-10-18T07:31:22.788Z,88.09
2022-10-18T07:32:54.402Z,88.12
2022-10-18T07:34:26.114Z,87.85
2022-10-18T07:36:02.481Z,87.50
2022-10-18T07:37:34.436Z,87.50
2022-10-18T07:39:06.660Z,87.07
2022-10-18T07:40:38.669Z,87.44
2022-10-18T07:42:11.661Z,87.19
2022-10-18T07:43:45.989Z,87.07
2022-10-18T07:45:17.674Z,86.97
2022-10-18T07:46:49.314Z,87.24
2022-10-18T07:48:21.009Z,87.29
2022-10-18T07:49:52.698Z,87.26
2022-10-18T07:51:24.408Z,86.87
2022-10-18T07:52:56.012Z,86.70
2022-10-18T07:54:27.669Z,86.65
2022-10-18T07:56:01.382Z,86.98
2022-10-18T07:57:36.553Z,86.93
2022-10-18T07:59:10.461Z,86.99
2022-10-18T08:00:42.097Z,87.05
2022-10-18T08:02:13.831Z,87.21
2022-10-18T08:03:45.933Z,86.94
2022-10-18T08:05:17.788Z,86.63
2022-10-18T08:06:49.464Z,86.61
2022-10-18T08:08:22.072Z,86.06
2022-10-18T08:09:53.765Z,85.60
2022-10-18T08:11:26.213Z,84.94
2022-10-18T08:12:59.167Z,84.89
2022-10-18T08:14:30.865Z,85.54
2022-10-18T08:16:05.253Z,85.89
2022-10-18T08:17:36.889Z,86.61
2022-10-18T08:19:08.614Z,86.68
2022-10-18T08:20:43.292Z,86.78
2022-10-18T08:22:15.099Z,86.58
2022-10-18T08:23:48.358Z,86.67
2022-10-18T08:25:19.987Z,86.64
2022-10-18T08:26:51.660Z,86.35
2022-10-18T08:28:24.883Z,86.36
2022-10-18T08:29:56.613Z,85.92
2022-10-18T08:31:28.626Z,85.60
2022-10-18T08:33:00.359Z,85.56
2022-10-18T08:34:32.115Z,85.80
2022-10-18T08:36:06.273Z,86.33
2022-10-18T08:37:38.324Z,85.75
2022-10-18T08:39:09.974Z,85.68
2022-10-18T08:40:43.287Z,86.01
2022-10-18T08:42:34.489Z,85.68
2022-10-18T08:44:16.066Z,86.43
2022-10-18T08:45:49.482Z,86.64
2022-10-18T08:47:24.964Z,87.45
2022-10-18T08:48:57.037Z,87.70
2022-10-18T08:50:35.249Z,87.67
2022-10-18T08:52:14.977Z,87.43
2022-10-18T08:53:54.341Z,87.58
2022-10-18T08:55:29.742Z,87.27
2022-10-18T08:57:04.416Z,87.04
2022-10-18T08:58:36.147Z,86.42
2022-10-18T09:00:16.101Z,85.83
2022-10-18T09:02:00.917Z,85.90
2022-10-18T09:04:01.884Z,85.66
2022-10-18T09:05:45.106Z,85.15
2022-10-18T09:07:36.806Z,84.43
2022-10-18T09:09:25.531Z,83.63
2022-10-18T09:11:07.244Z,83.67
2022-10-18T09:13:02.912Z,83.27
2022-10-18T09:15:03.888Z,83.02
2022-10-18T09:16:43.732Z,82.92
2022-10-18T09:18:24.468Z,82.09
2022-10-18T09:20:07.458Z,82.11
2022-10-18T09:21:49.234Z,82.34
2022-10-18T09:23:23.040Z,82.37
2022-10-18T09:25:02.864Z,82.11
2022-10-18T09:26:39.837Z,81.20
2022-10-18T09:28:16.831Z,82.24
2022-10-18T09:30:03.283Z,83.07
2022-10-18T09:31:43.723Z,83.66
2022-10-18T09:33:33.321Z,82.95
2022-10-18T09:35:14.362Z,82.78
2022-10-18T09:36:46.995Z,82.67
2022-10-18T09:40:03.434Z,81.69
2022-10-18T09:41:41.004Z,81.95
2022-10-18T09:43:18.702Z,82.08
2022-10-18T09:44:55.509Z,81.91
2022-10-18T09:46:32.365Z,81.83
2022-10-18T09:48:12.401Z,81.96
2022-10-18T09:49:47.412Z,81.91
2022-10-18T09:51:22.213Z,81.89
2022-10-18T09:53:01.919Z,81.82
2022-10-18T09:54:35.919Z,81.57
2022-10-18T09:56:11.825Z,81.19
2022-10-18T09:57:47.087Z,81.13
2022-10-18T09:59:38.548Z,80.75
2022-10-18T10:01:13.118Z,80.26
2022-10-18T10:02:45.748Z,80.52
2022-10-18T10:04:18.878Z,80.77
2022-10-18T10:06:02.362Z,80.82
2022-10-18T10:07:41.260Z,80.92
2022-10-18T10:09:16.094Z,81.19
2022-10-18T10:10:48.006Z,81.05
2022-10-18T10:12:28.717Z,80.77
2022-10-18T10:14:09.254Z,81.30
2022-10-18T10:15:46.916Z,81.54
2022-10-18T10:17:24.337Z,82.13
2022-10-18T10:18:56.265Z,82.48
2022-10-18T10:20:35.418Z,83.10
2022-10-18T10:22:10.957Z,83.92
2022-10-18T10:23:46.542Z,83.55
2022-10-18T10:25:25.827Z,83.45
2022-10-18T10:27:03.076Z,83.11
2022-10-18T10:28:43.655Z,82.89
2022-10-18T10:30:25.050Z,82.31
2022-10-18T10:32:03.547Z,82.33
2022-10-18T10:33:36.573Z,81.89
2022-10-18T10:35:35.297Z,80.98
2022-10-18T10:37:26.940Z,81.10
2022-10-18T10:39:07.169Z,81.46
2022-10-18T10:40:47.172Z,81.14
2022-10-18T10:42:18.758Z,80.67
2022-10-18T10:43:51.276Z,80.37
2022-10-18T10:45:25.328Z,80.27
2022-10-18T10:46:57.949Z,79.76
2022-10-18T10:48:33.679Z,79.14
2022-10-18T10:50:11.405Z,78.76
2022-10-18T10:51:43.688Z,78.22
2022-10-18T10:53:28.474Z,78.37
2022-10-18T10:55:06.141Z,78.04
2022-10-18T10:56:57.365Z,77.25
2022-10-18T10:58:36.334Z,77.59
2022-10-18T11:00:37.499Z,77.16
2022-10-18T11:02:21.810Z,76.71
2022-10-18T11:03:55.701Z,76.43
2022-10-18T11:05:29.306Z,75.39
2022-10-18T11:07:06.744Z,74.25
2022-10-18T11:08:41.461Z,74.13
2022-10-18T11:10:16.889Z,74.11
2022-10-18T11:11:59.573Z,74.15
2022-10-18T11:13:50.009Z,73.23
2022-10-18T11:15:30.766Z,73.52
2022-10-18T11:17:14.618Z,73.53
2022-10-18T11:18:49.539Z,73.60
2022-10-18T11:20:27.021Z,72.88
2022-10-18T11:22:02.471Z,71.60
2022-10-18T11:23:37.057Z,70.96
2022-10-18T11:25:14.564Z,71.43
2022-10-18T11:26:53.782Z,71.77
2022-10-18T11:28:38.746Z,71.06
2022-10-18T11:30:37.216Z,70.92
2022-10-18T11:32:18.931Z,70.99
2022-10-18T11:34:09.914Z,70.38
2022-10-18T11:35:47.086Z,70.64
2022-10-18T11:37:38.681Z,70.52
2022-10-18T11:39:19.294Z,70.87
2022-10-18T11:41:19.666Z,70.29
2022-10-18T11:43:00.672Z,70.77
2022-10-18T11:44:38.137Z,70.09
2022-10-18T11:46:18.494Z,70.38
2022-10-18T11:47:58.645Z,71.23
2022-10-18T11:49:49.652Z,72.22
2022-10-18T11:51:44.502Z,71.89
2022-10-18T11:53:32.045Z,71.49
2022-10-18T11:55:27.626Z,70.80
2022-10-18T11:57:13.618Z,71.36
2022-10-18T11:59:10.941Z,71.69
2022-10-18T12:00:49.139Z,72.21
2022-10-18T12:02:40.741Z,72.37
2022-10-18T12:04:20.104Z,72.09
2022-10-18T12:05:53.996Z,72.09
2022-10-18T12:07:32.536Z,71.66
2022-10-18T12:09:14.509Z,72.13
2022-10-18T12:11:04.505Z,71.74
2022-10-18T12:12:41.935Z,73.00
2022-10-18T12:14:27.078Z,73.02
2022-10-18T12:16:00.397Z,71.79
2022-10-18T12:17:44.245Z,70.86
2022-10-18T12:19:26.626Z,70.75
2022-10-18T12:21:00.751Z,70.82
2022-10-18T12:22:36.398Z,70.37
2022-10-18T12:24:12.583Z,70.16
2022-10-18T12:25:50.328Z,70.93
2022-10-18T12:27:32.707Z,70.36
2022-10-18T12:29:17.062Z,69.28
2022-10-18T12:30:55.344Z,69.33
2022-10-18T12:32:32.325Z,69.38
2022-10-18T12:34:19.158Z,69.25
2022-10-18T12:36:00.912Z,69.58
2022-10-18T12:37:53.375Z,68.99
2022-10-18T12:39:38.759Z,68.74
2022-10-18T12:41:20.717Z,67.87
2022-10-18T12:42:53.411Z,67.94
2022-10-18T12:44:31.230Z,67.80
2022-10-18T12:46:08.247Z,67.01
2022-10-18T12:47:42.550Z,67.20
2022-10-18T12:49:20.204Z,67.76
2022-10-18T12:50:59.101Z,66.13
2022-10-18T12:52:37.084Z,65.95
2022-10-18T12:54:11.354Z,66.93
2022-10-18T12:55:44.646Z,67.09
2022-10-18T12:57:23.137Z,66.61
2022-10-18T12:59:48.441Z,67.23
2022-10-18T13:01:20.191Z,66.07
2022-10-18T13:03:30.995Z,66.56
2022-10-18T13:05:55.038Z,65.82
2022-10-18T13:07:43.070Z,64.38
2022-10-18T13:09:20.963Z,63.76
2022-10-18T13:11:24.494Z,64.12
2022-10-18T13:13:35.928Z,63.89
2022-10-18T13:15:25.852Z,63.43
2022-10-18T13:17:04.842Z,63.17
2022-10-18T13:18:52.187Z,63.36
2022-10-18T13:20:32.656Z,63.36
2022-10-18T13:22:19.370Z,62.29
2022-10-18T13:24:06.838Z,62.10
2022-10-18T13:26:01.293Z,62.18
2022-10-18T13:27:44.614Z,60.97
2022-10-18T13:29:44.300Z,59.62
2022-10-18T13:31:21.926Z,60.13
2022-10-18T13:32:58.358Z,60.25
2022-10-18T13:34:34.808Z,60.18
2022-10-18T13:36:24.878Z,60.08
2022-10-18T13:37:59.425Z,59.93
2022-10-18T13:39:33.651Z,58.47
2022-10-18T13:41:07.572Z,58.99
2022-10-18T13:42:39.209Z,59.22
2022-10-18T13:44:22.767Z,60.35
2022-10-18T13:45:56.124Z,59.85
2022-10-18T13:47:36.697Z,58.52
2022-10-18T13:49:31.177Z,59.39
2022-10-18T13:51:17.676Z,59.63
2022-10-18T13:53:09.334Z,58.91
2022-10-18T13:55:01.287Z,58.75
2022-10-18T13:56:52.401Z,59.65
2022-10-18T13:58:33.643Z,59.69
2022-10-18T14:00:29.374Z,59.83
2022-10-18T14:02:36.367Z,60.45
2022-10-18T14:04:44.261Z,60.95
2022-10-18T14:06:19.303Z,61.69
2022-10-18T14:07:53.073Z,62.21
2022-10-18T14:09:44.859Z,62.39
2022-10-18T14:11:27.469Z,62.23
2022-10-18T14:13:02.605Z,62.14
2022-10-18T14:14:41.664Z,61.53
2022-10-18T14:16:28.081Z,62.12
2022-10-18T14:18:07.391Z,61.80
2022-10-18T14:19:42.775Z,61.41
2022-10-18T14:21:26.268Z,60.94
2022-10-18T14:23:04.859Z,61.38
2022-10-18T14:24:40.614Z,61.24
2022-10-18T14:26:14.873Z,61.24
2022-10-18T14:27:50.948Z,60.41
2022-10-18T14:29:25.489Z,61.62
2022-10-18T14:31:02.163Z,61.78
2022-10-18T14:32:34.285Z,61.82
2022-10-18T14:34:06.329Z,62.11
2022-10-18T14:35:39.018Z,62.45
2022-10-18T14:37:20.670Z,62.69
2022-10-18T14:38:55.044Z,62.47
2022-10-18T14:40:34.163Z,62.40
2022-10-18T14:42:05.835Z,63.38
2022-10-18T14:43:38.842Z,63.42
2022-10-18T14:45:17.860Z,63.77
2022-10-18T14:46:51.841Z,63.51
2022-10-18T14:48:23.712Z,62.80
2022-10-18T14:49:57.610Z,63.18
2022-10-18T14:51:33.868Z,63.58
2022-10-18T14:53:07.014Z,63.49
2022-10-18T14:54:38.879Z,63.59
2022-10-18T14:56:22.182Z,63.27
2022-10-18T14:57:54.572Z,63.15
2022-10-18T14:59:29.828Z,62.89
2022-10-18T15:01:01.841Z,62.84
2022-10-18T15:02:37.315Z,62.74
2022-10-18T15:04:11.697Z,62.38
2022-10-18T15:05:54.172Z,61.85
2022-10-18T15:07:29.237Z,62.37
2022-10-18T15:09:04.258Z,62.88
2022-10-18T15:10:36.119Z,63.33
2022-10-18T15:12:08.735Z,64.18
2022-10-18T15:13:48.177Z,64.08
2022-10-18T15:15:27.248Z,64.37
2022-10-18T15:17:01.646Z,64.67
2022-10-18T15:18:33.389Z,64.90
2022-10-18T15:20:20.778Z,64.89
2022-10-18T15:22:19.710Z,65.11
2022-10-18T15:23:48.455Z,65.20
2022-10-18T15:25:27.949Z,65.09
2022-10-18T15:27:14.295Z,65.03
2022-10-18T15:28:53.467Z,65.16
2022-10-18T15:30:28.817Z,65.22
2022-10-18T15:32:07.278Z,65.15
2022-10-18T15:33:38.979Z,65.18
2022-10-18T15:35:25.005Z,64.98
2022-10-18T15:36:57.836Z,63.99
2022-10-18T15:38:32.642Z,63.21
2022-10-18T15:40:35.949Z,57.39
2022-10-18T15:42:34.405Z,58.61
2022-10-18T15:44:11.642Z,58.91
2022-10-18T15:47:25.075Z,57.78
2022-10-18T15:49:19.310Z,56.47
2022-10-18T15:50:53.110Z,57.22
2022-10-18T15:52:38.087Z,56.75
2022-10-18T15:54:17.625Z,56.26
2022-10-18T15:55:51.740Z,55.96
2022-10-18T15:57:26.671Z,56.42
2022-10-18T15:59:03.985Z,56.59
2022-10-18T16:00:35.844Z,56.33
2022-10-18T16:02:14.124Z,56.58
2022-10-18T16:03:47.192Z,56.12
2022-10-18T16:05:20.730Z,56.57
2022-10-18T16:06:52.943Z,56.69
2022-10-18T16:08:26.403Z,56.63
2022-10-18T16:09:58.025Z,56.65
2022-10-18T16:11:29.779Z,56.65
2022-10-18T16:13:01.503Z,56.42
2022-10-18T16:14:33.279Z,56.61
2022-10-18T16:16:05.100Z,56.77
2022-10-18T16:17:38.395Z,56.81
2022-10-18T16:19:13.380Z,56.78
2022-10-18T16:20:45.577Z,56.55
2022-10-18T16:22:19.952Z,56.69
2022-10-18T16:23:51.862Z,56.88
2022-10-18T16:25:23.707Z,56.85
2022-10-18T16:26:55.417Z,57.07
2022-10-18T16:28:28.063Z,57.12
2022-10-18T16:29:59.809Z,57.73
2022-10-18T16:31:33.501Z,57.62
2022-10-18T16:33:07.478Z,57.68
2022-10-18T16:34:39.154Z,58.32
2022-10-18T16:36:14.728Z,58.59
2022-10-18T16:37:46.543Z,58.89
2022-10-18T16:39:20.049Z,58.88
2022-10-18T16:40:51.942Z,59.30
2022-10-18T16:42:23.563Z,59.46
2022-10-18T16:43:55.286Z,59.63
2022-10-18T16:45:26.957Z,59.95
2022-10-18T16:46:58.610Z,59.86
2022-10-18T16:48:32.471Z,60.08
2022-10-18T16:50:08.225Z,60.15
2022-10-18T16:51:40.787Z,60.53
2022-10-18T16:53:12.798Z,60.76
2022-10-18T16:54:44.420Z,61.02
2022-10-18T16:56:18.812Z,61.24
2022-10-18T16:57:51.286Z,61.60
2022-10-18T16:59:26.970Z,61.81
2022-10-18T17:01:01.003Z,62.17
2022-10-18T17:02:34.926Z,62.17
2022-10-18T17:04:08.094Z,62.27
2022-10-18T17:05:39.987Z,62.38
2022-10-18T17:08:58.321Z,63.27
2022-10-18T17:10:30.114Z,63.56
2022-10-18T17:12:01.733Z,63.74
2022-10-18T17:13:33.405Z,64.01
2022-10-18T17:15:06.131Z,63.78
2022-10-18T17:16:38.791Z,63.96
2022-10-18T17:18:13.753Z,63.99
2022-10-18T17:19:47.030Z,63.80
2022-10-18T17:21:19.125Z,63.98
2022-10-18T17:22:50.818Z,64.14
2022-10-18T17:24:22.525Z,64.45
2022-10-18T17:26:05.458Z,64.74
2022-10-18T17:27:40.533Z,64.78
2022-10-18T17:29:12.298Z,65.02
2022-10-18T17:30:44.828Z,65.35
2022-10-18T17:32:16.501Z,65.28
2022-10-18T17:33:48.256Z,65.29
2022-10-18T17:35:22.810Z,65.49
2022-10-18T17:36:54.597Z,65.16
2022-10-18T17:38:26.399Z,65.43
2022-10-18T17:39:58.877Z,65.80
2022-10-18T17:41:30.636Z,65.90
2022-10-18T17:43:02.437Z,65.66
2022-10-18T17:44:34.312Z,65.79
2022-10-18T17:46:06.584Z,65.83
2022-10-18T17:47:38.654Z,66.29
2022-10-18T17:49:10.799Z,66.17
2022-10-18T17:50:43.817Z,66.04
2022-10-18T17:52:15.678Z,66.38
2022-10-18T17:53:47.515Z,66.11
2022-10-18T17:55:19.253Z,66.29
2022-10-18T17:56:53.819Z,66.53
2022-10-18T17:58:26.401Z,67.07
2022-10-18T17:59:59.548Z,67.38
2022-10-18T18:01:31.383Z,67.66
2022-10-18T18:03:03.190Z,67.52
2022-10-18T18:04:34.892Z,67.67
2022-10-18T18:06:18.740Z,67.58
2022-10-18T18:07:50.443Z,67.73
2022-10-18T18:09:22.229Z,67.79
2022-10-18T18:10:54.820Z,67.55
2022-10-18T18:12:26.988Z,67.89
2022-10-18T18:13:58.933Z,68.16
2022-10-18T18:15:30.783Z,68.63
2022-10-18T18:17:02.624Z,68.41
2022-10-18T18:18:34.325Z,68.76
2022-10-18T18:20:07.161Z,68.54
2022-10-18T18:21:41.086Z,68.73
2022-10-18T18:23:12.852Z,68.61
2022-10-18T18:24:44.700Z,69.14
2022-10-18T18:26:17.030Z,69.08
2022-10-18T18:27:48.715Z,69.43
2022-10-18T18:29:20.858Z,69.31
2022-10-18T18:30:52.591Z,69.03
2022-10-18T18:32:24.259Z,69.49
2022-10-18T18:33:57.853Z,69.24
2022-10-18T18:35:29.579Z,69.06
2022-10-18T18:37:02.785Z,69.25
2022-10-18T18:38:36.599Z,69.50
2022-10-18T18:40:08.969Z,69.79
2022-10-18T18:41:41.087Z,69.63
2022-10-18T18:43:23.003Z,69.87
2022-10-18T18:44:55.123Z,69.91
2022-10-18T18:46:28.180Z,69.91
2022-10-18T18:47:59.879Z,70.02
2022-10-18T18:49:32.068Z,69.84
2022-10-18T18:51:05.711Z,70.15
2022-10-18T18:52:38.888Z,70.22
2022-10-18T18:54:14.682Z,70.70
2022-10-18T18:55:47.676Z,70.33
2022-10-18T18:57:19.695Z,70.17
2022-10-18T18:58:51.881Z,70.07
2022-10-18T19:00:23.627Z,69.93
2022-10-18T19:01:55.469Z,69.77
2022-10-18T19:03:27.345Z,70.28
2022-10-18T19:04:59.008Z,69.86
2022-10-18T19:06:33.763Z,70.38
2022-10-18T19:08:06.896Z,69.69
2022-10-18T19:09:39.270Z,70.27
2022-10-18T19:11:14.735Z,70.43
2022-10-18T19:12:46.404Z,70.25
2022-10-18T19:14:18.231Z,70.56
2022-10-18T19:15:50.085Z,70.47
2022-10-18T19:17:25.926Z,70.69
2022-10-18T19:18:59.964Z,71.13
2022-10-18T19:20:31.637Z,70.82
2022-10-18T19:22:09.501Z,71.29
2022-10-18T19:23:42.633Z,71.21
2022-10-18T19:25:14.329Z,71.12
2022-10-18T19:26:48.524Z,71.33
2022-10-18T19:28:20.767Z,71.49
2022-10-18T19:29:52.485Z,71.57
2022-10-18T19:31:24.478Z,71.48
2022-10-18T19:33:02.804Z,71.28
2022-10-18T19:34:35.654Z,71.59
2022-10-18T19:36:08.734Z,71.41
2022-10-18T19:37:40.760Z,71.23
2022-10-18T19:39:18.197Z,71.45
2022-10-18T19:40:53.633Z,71.40
2022-10-18T19:42:28.950Z,71.54
2022-10-18T19:44:03.271Z,71.58
2022-10-18T19:45:35.012Z,71.59
2022-10-18T19:47:08.323Z,71.59
2022-10-18T19:48:40.207Z,71.66
2022-10-18T19:50:12.046Z,71.62
2022-10-18T19:51:47.080Z,71.87
2022-10-18T19:53:18.870Z,71.87
2022-10-18T19:54:51.874Z,72.13
2022-10-18T19:56:25.060Z,72.17
2022-10-18T19:57:57.022Z,72.03
2022-10-18T19:59:28.954Z,72.16
2022-10-18T20:01:02.285Z,71.87
2022-10-18T20:02:34.305Z,72.08
2022-10-18T20:04:08.393Z,72.36
2022-10-18T20:05:40.129Z,71.79
2022-10-18T20:07:11.813Z,72.08
2022-10-18T20:08:44.028Z,72.09
2022-10-18T20:10:17.361Z,72.34
2022-10-18T20:11:49.262Z,72.21
2022-10-18T20:13:28.746Z,72.07
2022-10-18T20:15:00.427Z,71.92
2022-10-18T20:16:33.788Z,71.51
2022-10-18T20:18:05.469Z,71.41
2022-10-18T20:19:37.099Z,71.42
2022-10-18T20:21:11.061Z,71.42
2022-10-18T20:22:42.721Z,71.15
2022-10-18T20:24:14.511Z,70.49
2022-10-18T20:25:57.492Z,70.32
2022-10-18T20:27:30.611Z,70.47
2022-10-18T20:29:03.329Z,70.51
2022-10-18T20:30:35.144Z,70.74
2022-10-18T20:32:06.802Z,70.85
2022-10-18T20:33:39.048Z,71.05
2022-10-18T20:35:10.825Z,70.84
2022-10-18T20:36:42.975Z,71.05
2022-10-18T20:38:14.663Z,70.87
2022-10-18T20:39:46.712Z,70.60
2022-10-18T20:41:22.859Z,70.79